createdAt,value
2018-03-30T00:01:24.386Z,29.10
2018-03-30T00:03:52.883Z,22.70
2018-03-30T00:06:21.342Z,28.77
2018-03-30T00:08:49.877Z,29.07
2018-03-30T00:11:23.878Z,25.77
2018-03-30T00:13:52.370Z,29.87
2018-03-30T00:16:20.904Z,23.80
2018-03-30T00:18:49.398Z,24.90
2018-03-30T00:21:17.889Z,32.23
2018-03-30T00:23:46.382Z,24.73
2018-03-30T00:26:14.837Z,24.20
2018-03-30T00:28:43.352Z,24.17
2018-03-30T00:31:11.836Z,23.87
2018-03-30T00:33:40.325Z,26.60
2018-03-30T00:36:08.818Z,26.27
2018-03-30T00:38:37.318Z,24.77
2018-03-30T00:41:05.822Z,25.03
2018-03-30T00:43:34.299Z,28.20
2018-03-30T00:46:02.790Z,23.23
2018-03-30T00:48:31.302Z,22.57
2018-03-30T00:50:59.790Z,24.07
2018-03-30T00:53:39.927Z,24.57
2018-03-30T00:56:08.375Z,22.63
2018-03-30T00:58:36.880Z,24.03
2018-03-30T01:01:05.338Z,21.73
2018-03-30T01:03:33.830Z,22.50
2018-03-30T01:06:02.334Z,24.13
2018-03-30T01:08:30.814Z,23.63
2018-03-30T01:10:59.380Z,24.70
2018-03-30T01:13:27.861Z,26.27
2018-03-30T01:15:56.373Z,22.93
2018-03-30T01:18:24.880Z,24.70
2018-03-30T01:20:53.386Z,26.00
2018-03-30T01:23:22.259Z,23.63
2018-03-30T01:25:50.810Z,29.10
2018-03-30T01:28:19.282Z,31.07
2018-03-30T01:30:47.779Z,29.27
2018-03-30T01:33:16.234Z,29.60
2018-03-30T01:35:44.734Z,28.00
2018-03-30T01:38:13.231Z,35.37
2018-03-30T01:40:41.706Z,31.67
2018-03-30T01:43:10.214Z,29.97
2018-03-30T01:45:38.714Z,29.47
2018-03-30T01:48:07.174Z,29.43
2018-03-30T01:50:35.692Z,30.93
2018-03-30T01:53:04.153Z,34.37
2018-03-30T01:55:32.642Z,32.47
2018-03-30T01:58:01.138Z,31.63
2018-03-30T02:00:29.630Z,34.00
2018-03-30T02:02:58.140Z,32.00
2018-03-30T02:05:26.681Z,30.13
2018-03-30T02:07:55.154Z,34.97
2018-03-30T02:10:23.665Z,29.13
2018-03-30T02:12:52.169Z,33.50
2018-03-30T02:15:20.629Z,35.17
2018-03-30T02:17:49.131Z,43.47
2018-03-30T02:20:17.590Z,42.67
2018-03-30T02:22:46.078Z,67.10
2018-03-30T02:25:14.570Z,38.90
2018-03-30T02:27:43.058Z,46.23
2018-03-30T02:30:11.523Z,42.60
2018-03-30T02:32:40.034Z,42.77
2018-03-30T02:35:08.499Z,38.50
2018-03-30T02:37:36.985Z,35.03
2018-03-30T02:40:05.523Z,39.57
2018-03-30T02:42:33.997Z,46.50
2018-03-30T02:45:02.517Z,44.20
2018-03-30T02:47:30.984Z,51.00
2018-03-30T02:49:59.470Z,47.67
2018-03-30T02:52:27.974Z,48.23
2018-03-30T02:54:56.462Z,58.07
2018-03-30T02:57:24.935Z,61.20
2018-03-30T02:59:53.442Z,46.13
2018-03-30T03:02:21.898Z,44.73
2018-03-30T03:04:50.404Z,50.70
2018-03-30T03:07:18.874Z,53.80
2018-03-30T03:09:47.341Z,38.27
2018-03-30T03:12:15.847Z,30.63
2018-03-30T03:14:44.342Z,40.70
2018-03-30T03:17:12.821Z,30.97
2018-03-30T03:19:41.322Z,42.30
2018-03-30T03:22:09.822Z,32.37
2018-03-30T03:24:38.331Z,27.57
2018-03-30T03:27:06.822Z,36.43
2018-03-30T03:29:35.327Z,46.53
2018-03-30T03:32:03.814Z,34.90
2018-03-30T03:34:32.293Z,33.93
2018-03-30T03:37:00.838Z,35.23
2018-03-30T03:39:29.302Z,38.30
2018-03-30T03:41:57.782Z,37.90
2018-03-30T03:44:26.304Z,41.20
2018-03-30T03:46:54.836Z,57.43
2018-03-30T03:49:23.342Z,56.53
2018-03-30T03:51:51.816Z,54.93
2018-03-30T03:54:20.314Z,53.53
2018-03-30T03:56:48.830Z,54.97
2018-03-30T03:59:17.304Z,52.67
2018-03-30T04:01:45.825Z,48.73
2018-03-30T04:04:14.286Z,52.07
2018-03-30T04:06:42.757Z,58.10
2018-03-30T04:09:11.276Z,54.73
2018-03-30T04:11:39.787Z,55.03
2018-03-30T04:14:08.255Z,69.53
2018-03-30T04:16:36.862Z,59.57
2018-03-30T04:19:05.344Z,54.53
2018-03-30T04:21:33.870Z,45.77
2018-03-30T04:24:02.358Z,51.37
2018-03-30T04:26:30.831Z,56.10
2018-03-30T04:28:59.334Z,76.73
2018-03-30T04:31:27.799Z,63.93
2018-03-30T04:33:56.302Z,56.73
2018-03-30T04:36:24.765Z,65.10
2018-03-30T04:38:53.271Z,50.73
2018-03-30T04:41:21.786Z,67.03
2018-03-30T04:43:50.264Z,81.80
2018-03-30T04:46:18.786Z,74.00
2018-03-30T04:48:47.331Z,68.67
2018-03-30T04:51:15.802Z,59.40
2018-03-30T04:53:44.310Z,60.73
2018-03-30T04:56:12.793Z,55.37
2018-03-30T04:58:41.344Z,54.20
2018-03-30T05:01:09.822Z,63.30
2018-03-30T05:03:38.286Z,45.37
2018-03-30T05:06:06.804Z,42.93
2018-03-30T05:08:35.336Z,41.90
2018-03-30T05:11:03.921Z,46.73
2018-03-30T05:13:32.389Z,42.80
2018-03-30T05:16:00.890Z,50.60
2018-03-30T05:18:29.409Z,42.27
2018-03-30T05:20:57.954Z,40.27
2018-03-30T05:23:26.513Z,37.27
2018-03-30T05:25:54.995Z,48.23
2018-03-30T05:28:24.122Z,44.67
2018-03-30T05:30:52.634Z,43.63
2018-03-30T05:33:21.183Z,63.20
2018-03-30T05:35:49.690Z,60.20
2018-03-30T05:38:21.038Z,45.83
2018-03-30T05:40:49.509Z,41.30
2018-03-30T05:43:18.018Z,45.53
2018-03-30T05:45:46.543Z,46.87
2018-03-30T05:48:15.114Z,41.93
2018-03-30T05:50:43.640Z,43.63
2018-03-30T05:53:12.136Z,31.93
2018-03-30T05:55:40.709Z,28.50
2018-03-30T05:58:09.240Z,39.77
2018-03-30T06:00:37.773Z,32.83
2018-03-30T06:03:06.338Z,41.97
2018-03-30T06:05:34.850Z,40.70
2018-03-30T06:08:03.543Z,51.43
2018-03-30T06:10:32.002Z,42.90
2018-03-30T06:13:00.488Z,39.10
2018-03-30T06:15:29.147Z,42.93
2018-03-30T06:17:57.642Z,36.90
2018-03-30T06:20:26.246Z,48.20
2018-03-30T06:22:54.721Z,43.23
2018-03-30T06:25:23.235Z,38.77
2018-03-30T06:27:51.816Z,40.97
2018-03-30T06:30:20.337Z,37.93
2018-03-30T06:32:48.834Z,34.33
2018-03-30T06:35:17.345Z,36.60
2018-03-30T06:37:45.829Z,40.57
2018-03-30T06:40:14.357Z,32.13
2018-03-30T06:42:42.866Z,32.93
2018-03-30T06:45:11.367Z,39.07
2018-03-30T06:47:39.848Z,33.27
2018-03-30T06:50:08.359Z,31.70
2018-03-30T06:52:36.879Z,32.07
2018-03-30T06:55:05.366Z,41.70
2018-03-30T06:57:33.945Z,34.97
2018-03-30T07:00:02.456Z,33.33
2018-03-30T07:02:30.926Z,49.27
2018-03-30T07:04:59.428Z,41.60
2018-03-30T07:07:31.107Z,34.60
2018-03-30T07:09:59.608Z,30.50
2018-03-30T07:12:28.190Z,33.80
2018-03-30T07:14:56.720Z,29.47
2018-03-30T07:17:25.213Z,37.60
2018-03-30T07:19:53.729Z,34.47
2018-03-30T07:22:22.284Z,31.00
2018-03-30T07:24:50.889Z,29.93
2018-03-30T07:27:19.393Z,38.33
2018-03-30T07:29:47.936Z,29.83
2018-03-30T07:32:16.413Z,31.97
2018-03-30T07:34:44.941Z,31.77
2018-03-30T07:37:13.457Z,36.03
2018-03-30T07:39:41.963Z,32.10
2018-03-30T07:42:10.481Z,29.53
2018-03-30T07:44:39.776Z,37.17
2018-03-30T07:47:08.648Z,31.57
2018-03-30T07:49:37.186Z,36.03
2018-03-30T07:52:05.658Z,31.63
2018-03-30T07:54:34.162Z,35.20
2018-03-30T07:57:02.650Z,29.00
2018-03-30T07:59:31.198Z,32.23
2018-03-30T08:01:59.779Z,30.87
2018-03-30T08:04:28.298Z,30.23
2018-03-30T08:06:56.852Z,29.30
2018-03-30T08:09:25.339Z,34.30
2018-03-30T08:11:53.877Z,31.93
2018-03-30T08:14:22.393Z,29.50
2018-03-30T08:16:50.908Z,30.33
2018-03-30T08:19:19.423Z,25.10
2018-03-30T08:21:47.950Z,27.57
2018-03-30T08:24:16.422Z,34.43
2018-03-30T08:26:44.937Z,33.47
2018-03-30T08:29:13.423Z,31.60
2018-03-30T08:31:41.941Z,25.87
2018-03-30T08:34:10.504Z,24.10
2018-03-30T08:36:39.032Z,23.30
2018-03-30T08:39:07.558Z,23.87
2018-03-30T08:41:36.041Z,23.50
2018-03-30T08:44:04.557Z,23.30
2018-03-30T08:46:33.034Z,26.40
2018-03-30T08:49:01.545Z,41.07
2018-03-30T08:51:30.036Z,22.63
2018-03-30T08:53:58.550Z,24.63
2018-03-30T08:56:27.055Z,23.20
2018-03-30T08:58:55.542Z,24.93
2018-03-30T09:01:24.072Z,26.07
2018-03-30T09:03:52.547Z,24.40
2018-03-30T09:06:21.062Z,25.20
2018-03-30T09:08:49.577Z,25.63
2018-03-30T09:11:18.090Z,24.67
2018-03-30T09:13:46.608Z,25.67
2018-03-30T09:16:15.145Z,23.47
2018-03-30T09:18:44.561Z,22.43
2018-03-30T09:21:13.070Z,28.63
2018-03-30T09:23:41.583Z,27.93
2018-03-30T09:26:10.058Z,23.80
2018-03-30T09:28:38.579Z,27.83
2018-03-30T09:31:07.140Z,25.93
2018-03-30T09:33:35.654Z,26.10
2018-03-30T09:36:04.162Z,27.87
2018-03-30T09:38:32.674Z,30.53
2018-03-30T09:41:01.190Z,27.97
2018-03-30T09:43:29.702Z,27.67
2018-03-30T09:45:58.174Z,26.40
2018-03-30T09:48:26.689Z,24.73
2018-03-30T09:50:55.171Z,25.60
2018-03-30T09:53:23.634Z,32.37
2018-03-30T09:55:52.150Z,24.10
2018-03-30T09:58:20.706Z,21.23
2018-03-30T10:00:50.018Z,19.60
2018-03-30T10:03:18.544Z,20.67
2018-03-30T10:05:47.062Z,22.80
2018-03-30T10:08:15.574Z,20.43
2018-03-30T10:10:44.171Z,22.27
2018-03-30T10:13:12.670Z,22.43
2018-03-30T10:15:41.178Z,27.37
2018-03-30T10:18:09.691Z,24.30
2018-03-30T10:20:38.196Z,23.77
2018-03-30T10:23:06.662Z,19.43
2018-03-30T10:25:35.178Z,23.43
2018-03-30T10:28:03.648Z,25.60
2018-03-30T10:30:32.132Z,26.77
2018-03-30T10:33:00.594Z,24.27
2018-03-30T10:35:29.054Z,23.67
2018-03-30T10:37:57.557Z,26.17
2018-03-30T10:40:26.050Z,27.63
2018-03-30T10:42:54.558Z,27.20
2018-03-30T10:45:23.022Z,28.27
2018-03-30T10:47:51.526Z,29.00
2018-03-30T10:50:20.027Z,27.70
2018-03-30T10:52:48.538Z,28.97
2018-03-30T10:55:17.006Z,31.57
2018-03-30T10:57:45.480Z,27.83
2018-03-30T11:00:13.990Z,28.50
2018-03-30T11:02:42.461Z,27.57
2018-03-30T11:05:10.978Z,28.73
2018-03-30T11:07:39.490Z,29.77
2018-03-30T11:10:07.991Z,28.73
2018-03-30T11:12:36.515Z,29.07
2018-03-30T11:15:04.986Z,27.97
2018-03-30T11:17:33.450Z,28.33
2018-03-30T11:20:01.975Z,31.20
2018-03-30T11:22:30.437Z,24.70
2018-03-30T11:24:58.907Z,26.20
2018-03-30T11:27:27.411Z,25.90
2018-03-30T11:29:55.927Z,45.50
2018-03-30T11:32:24.487Z,25.47
2018-03-30T11:34:52.946Z,28.00
2018-03-30T11:37:21.410Z,23.70
2018-03-30T11:39:49.914Z,25.73
2018-03-30T11:42:18.413Z,24.07
2018-03-30T11:44:47.032Z,24.13
2018-03-30T11:47:15.554Z,25.20
2018-03-30T11:49:44.054Z,22.33
2018-03-30T11:52:12.554Z,27.20
2018-03-30T11:54:41.061Z,26.37
2018-03-30T11:57:09.523Z,25.27
2018-03-30T11:59:38.035Z,24.37
2018-03-30T12:02:06.506Z,24.63
2018-03-30T12:04:35.017Z,24.37
2018-03-30T12:07:03.513Z,21.70
2018-03-30T12:09:32.018Z,19.60
2018-03-30T12:12:00.478Z,20.67
2018-03-30T12:14:28.987Z,19.83
2018-03-30T12:16:57.529Z,15.40
2018-03-30T12:19:26.021Z,15.30
2018-03-30T12:21:54.527Z,17.37
2018-03-30T12:24:23.051Z,15.13
2018-03-30T12:26:51.540Z,15.97
2018-03-30T12:29:20.038Z,15.80
2018-03-30T12:31:48.503Z,14.70
2018-03-30T12:34:17.028Z,13.77
2018-03-30T12:36:45.530Z,13.50
2018-03-30T12:39:14.054Z,13.03
2018-03-30T12:41:42.522Z,13.03
2018-03-30T12:44:11.026Z,14.27
2018-03-30T12:46:39.498Z,14.43
2018-03-30T12:49:08.002Z,15.23
2018-03-30T12:51:36.470Z,17.40
2018-03-30T12:54:05.002Z,18.13
2018-03-30T12:56:33.521Z,19.73
2018-03-30T12:59:02.030Z,19.17
2018-03-30T13:01:30.558Z,17.80
2018-03-30T13:03:59.091Z,16.87
2018-03-30T13:06:27.586Z,14.87
2018-03-30T13:08:56.086Z,14.83
2018-03-30T13:11:24.610Z,13.53
2018-03-30T13:13:53.088Z,12.63
2018-03-30T13:16:21.608Z,12.67
2018-03-30T13:18:50.103Z,11.80
2018-03-30T13:21:18.664Z,12.23
2018-03-30T13:23:47.195Z,11.57
2018-03-30T13:26:15.709Z,11.33
2018-03-30T13:28:44.174Z,10.73
2018-03-30T13:31:12.688Z,10.70
2018-03-30T13:33:41.202Z,11.17
2018-03-30T13:36:09.687Z,13.03
2018-03-30T13:38:38.173Z,11.00
2018-03-30T13:41:06.692Z,17.37
2018-03-30T13:43:35.198Z,12.33
2018-03-30T13:46:03.704Z,11.67
2018-03-30T13:48:32.210Z,13.20
2018-03-30T13:54:17.683Z,13.83
2018-03-30T13:56:46.221Z,14.00
2018-03-30T13:59:18.597Z,13.93
2018-03-30T14:04:49.510Z,13.20
2018-03-30T14:10:27.793Z,24.13
2018-03-30T14:12:58.238Z,12.70
2018-03-30T14:15:29.535Z,12.60
2018-03-30T14:21:11.715Z,12.20
2018-03-30T14:23:41.088Z,15.63
2018-03-30T14:26:23.314Z,11.87
2018-03-30T14:29:02.729Z,11.47
2018-03-30T14:31:36.790Z,10.80
2018-03-30T14:34:06.345Z,11.17
2018-03-30T14:39:40.219Z,11.27
2018-03-30T14:42:11.544Z,10.47
2018-03-30T14:44:41.018Z,10.73
2018-03-30T14:47:09.556Z,11.70
2018-03-30T14:49:42.374Z,10.07
2018-03-30T14:52:15.557Z,10.17
2018-03-30T14:54:46.472Z,10.00
2018-03-30T14:57:22.498Z,10.57
2018-03-30T14:59:53.516Z,10.30
2018-03-30T15:02:36.875Z,9.87
2018-03-30T15:05:21.950Z,10.27
2018-03-30T15:07:52.314Z,9.60
2018-03-30T15:10:34.194Z,9.07
2018-03-30T15:13:10.368Z,10.17
2018-03-30T15:15:57.304Z,9.47
2018-03-30T15:18:30.590Z,9.93
2018-03-30T15:21:12.594Z,9.83
2018-03-30T15:23:44.827Z,9.33
2018-03-30T15:26:24.771Z,9.87
2018-03-30T15:29:03.184Z,9.20
2018-03-30T15:31:38.207Z,10.33
2018-03-30T15:37:15.706Z,9.63
2018-03-30T15:39:46.034Z,9.20
2018-03-30T15:42:15.422Z,9.30
2018-03-30T15:44:44.010Z,9.53
2018-03-30T15:47:14.114Z,9.47
2018-03-30T15:49:42.651Z,9.93
2018-03-30T15:52:21.113Z,10.37
2018-03-30T15:54:49.653Z,12.80
2018-03-30T15:57:18.159Z,18.87
2018-03-30T15:59:47.478Z,13.00
2018-03-30T16:02:15.982Z,11.37
2018-03-30T16:04:44.502Z,13.10
2018-03-30T16:07:13.038Z,9.97
2018-03-30T16:09:46.943Z,10.50
2018-03-30T16:12:17.161Z,12.60
2018-03-30T16:14:45.718Z,11.80
2018-03-30T16:17:14.242Z,12.40
2018-03-30T16:19:42.230Z,11.23
2018-03-30T16:22:10.146Z,10.57
2018-03-30T16:24:38.058Z,10.70
2018-03-30T16:27:06.072Z,12.30
2018-03-30T16:29:34.055Z,16.90
2018-03-30T16:32:02.074Z,16.07
2018-03-30T16:34:30.050Z,14.13
2018-03-30T16:36:58.002Z,12.73
2018-03-30T16:39:25.651Z,16.50
2018-03-30T16:41:53.333Z,14.30
2018-03-30T16:44:20.977Z,16.00
2018-03-30T16:46:48.614Z,15.27
2018-03-30T16:49:16.286Z,14.27
2018-03-30T16:51:43.954Z,14.23
2018-03-30T16:54:11.594Z,16.03
2018-03-30T16:56:39.271Z,17.07
2018-03-30T16:59:06.946Z,15.47
2018-03-30T17:01:34.599Z,15.60
2018-03-30T17:04:02.302Z,15.40
2018-03-30T17:06:29.938Z,15.57
2018-03-30T17:08:57.611Z,16.00
2018-03-30T17:11:25.307Z,16.40
2018-03-30T17:13:52.947Z,15.27
2018-03-30T17:16:20.614Z,14.57
2018-03-30T17:18:48.247Z,15.10
2018-03-30T17:21:15.913Z,16.33
2018-03-30T17:23:43.645Z,16.50
2018-03-30T17:26:11.272Z,15.73
2018-03-30T17:28:38.956Z,14.87
2018-03-30T17:31:06.591Z,15.47
2018-03-30T17:33:34.338Z,15.93
2018-03-30T17:36:01.978Z,15.23
2018-03-30T17:38:29.610Z,18.13
2018-03-30T17:40:57.287Z,18.73
2018-03-30T17:43:24.927Z,20.00
2018-03-30T17:45:52.597Z,18.30
2018-03-30T17:48:20.234Z,16.57
2018-03-30T17:50:47.915Z,17.40
2018-03-30T17:53:15.581Z,19.20
2018-03-30T17:55:43.276Z,16.80
2018-03-30T17:58:10.914Z,23.97
2018-03-30T18:00:38.550Z,17.90
2018-03-30T18:03:06.236Z,23.63
2018-03-30T18:05:33.876Z,19.23
2018-03-30T18:08:01.544Z,22.17
2018-03-30T18:10:29.178Z,20.97
2018-03-30T18:12:56.854Z,19.03
2018-03-30T18:15:24.494Z,20.43
2018-03-30T18:17:52.130Z,20.30
2018-03-30T18:20:19.812Z,23.13
2018-03-30T18:22:47.482Z,21.53
2018-03-30T18:25:15.169Z,21.27
2018-03-30T18:27:42.804Z,20.77
2018-03-30T18:30:10.479Z,21.97
2018-03-30T18:32:38.124Z,21.43
2018-03-30T18:35:05.798Z,22.70
2018-03-30T18:37:33.479Z,21.03
2018-03-30T18:40:01.150Z,23.00
2018-03-30T18:42:29.790Z,22.20
2018-03-30T18:44:57.474Z,22.63
2018-03-30T18:47:25.106Z,23.33
2018-03-30T18:49:52.773Z,24.17
2018-03-30T18:52:20.450Z,24.23
2018-03-30T18:54:48.086Z,25.17
2018-03-30T18:57:15.722Z,26.57
2018-03-30T18:59:43.390Z,27.00
2018-03-30T19:02:11.030Z,23.80
2018-03-30T19:04:38.702Z,23.20
2018-03-30T19:07:06.334Z,29.80
2018-03-30T19:09:33.979Z,30.13
2018-03-30T19:12:01.661Z,26.77
2018-03-30T19:14:29.306Z,26.17
2018-03-30T19:16:56.994Z,27.17
2018-03-30T19:19:24.630Z,26.33
2018-03-30T19:21:52.338Z,25.03
2018-03-30T19:24:19.970Z,24.20
2018-03-30T19:26:47.649Z,27.10
2018-03-30T19:29:15.285Z,26.17
2018-03-30T19:31:42.954Z,24.67
2018-03-30T19:34:10.642Z,26.10
2018-03-30T19:36:38.278Z,26.63
2018-03-30T19:39:05.914Z,27.80
2018-03-30T19:41:33.582Z,29.50
2018-03-30T19:44:01.257Z,28.87
2018-03-30T19:46:28.915Z,28.93
2018-03-30T19:48:56.588Z,28.50
2018-03-30T19:51:24.234Z,27.23
2018-03-30T19:53:51.918Z,23.40
2018-03-30T19:56:19.564Z,25.13
2018-03-30T19:58:47.248Z,24.73
2018-03-30T20:01:14.949Z,24.53
2018-03-30T20:03:42.590Z,24.67
2018-03-30T20:06:10.218Z,25.00
2018-03-30T20:08:37.887Z,23.17
2018-03-30T20:11:05.556Z,23.00
2018-03-30T20:13:33.198Z,23.63
2018-03-30T20:16:00.962Z,23.30
2018-03-30T20:18:28.594Z,24.13
2018-03-30T20:20:56.235Z,30.73
2018-03-30T20:23:23.902Z,25.13
2018-03-30T20:25:51.532Z,24.67
2018-03-30T20:28:19.198Z,23.93
2018-03-30T20:30:46.833Z,29.13
2018-03-30T20:33:14.503Z,23.47
2018-03-30T20:35:42.138Z,22.77
2018-03-30T20:38:09.828Z,27.87
2018-03-30T20:40:37.502Z,29.37
2018-03-30T20:43:05.188Z,26.00
2018-03-30T20:45:32.862Z,25.70
2018-03-30T20:48:00.503Z,26.93
2018-03-30T20:50:28.174Z,24.37
2018-03-30T20:52:55.874Z,45.77
2018-03-30T20:55:23.541Z,38.43
2018-03-30T20:57:51.174Z,49.10
2018-03-30T21:00:18.861Z,42.90
2018-03-30T21:02:46.493Z,26.90
2018-03-30T21:05:14.121Z,29.10
2018-03-30T21:07:41.794Z,26.53
2018-03-30T21:10:09.474Z,24.67
2018-03-30T21:12:37.113Z,24.20
2018-03-30T21:15:04.749Z,45.67
2018-03-30T21:17:32.427Z,47.37
2018-03-30T21:20:00.067Z,27.17
2018-03-30T21:22:27.744Z,27.63
2018-03-30T21:24:55.422Z,24.80
2018-03-30T21:27:23.066Z,23.90
2018-03-30T21:29:50.746Z,24.53
2018-03-30T21:32:18.406Z,24.33
2018-03-30T21:34:46.038Z,30.97
2018-03-30T21:37:13.724Z,32.40
2018-03-30T21:39:41.409Z,25.63
2018-03-30T21:42:09.043Z,27.70
2018-03-30T21:44:36.728Z,43.93
2018-03-30T21:47:04.426Z,26.77
2018-03-30T21:49:32.102Z,30.73
2018-03-30T21:51:59.774Z,46.10
2018-03-30T21:54:27.464Z,35.93
2018-03-30T21:56:55.099Z,35.77
2018-03-30T21:59:22.766Z,26.20
2018-03-30T22:01:50.413Z,25.33
2018-03-30T22:04:18.090Z,26.77
2018-03-30T22:06:45.761Z,25.13
2018-03-30T22:09:13.405Z,25.80
2018-03-30T22:11:41.089Z,26.20
2018-03-30T22:14:08.726Z,26.67
2018-03-30T22:16:36.413Z,25.27
2018-03-30T22:19:04.081Z,27.13
2018-03-30T22:21:31.714Z,25.73
2018-03-30T22:23:59.383Z,26.57
2018-03-30T22:26:27.068Z,25.97
2018-03-30T22:28:54.718Z,26.43
2018-03-30T22:31:22.387Z,26.53
2018-03-30T22:33:50.062Z,25.67
2018-03-30T22:36:17.729Z,27.73
2018-03-30T22:38:45.362Z,25.73
2018-03-30T22:41:13.029Z,27.60
2018-03-30T22:43:40.684Z,26.30
2018-03-30T22:46:08.376Z,27.87
2018-03-30T22:48:36.014Z,27.53
2018-03-30T22:51:03.650Z,30.20
2018-03-30T22:53:31.327Z,28.73
2018-03-30T22:55:58.997Z,31.97
2018-03-30T22:58:26.677Z,30.37
2018-03-30T23:00:54.310Z,28.37
2018-03-30T23:03:21.987Z,30.20
2018-03-30T23:05:49.987Z,30.10
2018-03-30T23:08:17.927Z,27.93
2018-03-30T23:10:45.870Z,27.53
2018-03-30T23:13:13.858Z,28.93
2018-03-30T23:15:41.826Z,29.70
2018-03-30T23:18:09.813Z,28.50
2018-03-30T23:20:37.786Z,28.70
2018-03-30T23:23:05.769Z,28.67
2018-03-30T23:25:33.757Z,28.70
2018-03-30T23:28:01.708Z,28.50
2018-03-30T23:30:29.714Z,29.80
2018-03-30T23:32:57.651Z,28.80
2018-03-30T23:35:25.660Z,29.03
2018-03-30T23:37:53.598Z,28.17
2018-03-30T23:40:21.522Z,26.20
2018-03-30T23:42:49.531Z,26.90
2018-03-30T23:45:17.494Z,26.33
2018-03-30T23:47:45.476Z,25.77
2018-03-30T23:50:13.430Z,27.33
2018-03-30T23:52:41.407Z,27.20
2018-03-30T23:55:09.381Z,27.57
2018-03-30T23:57:37.341Z,25.97
